sensor_id;sensor_type;location;lat;lon;timestamp;pressure;altitude;pressure_sealevel;temperature;humidity
48553;BME280;34335;51.566;6.994;2022-09-12T00:00:29;101229.09;;;13.82;82.30
48553;BME280;34335;51.566;6.994;2022-09-12T00:02:57;101227.34;;;13.78;82.49
48553;BME280;34335;51.566;6.994;2022-09-12T00:05:24;101228.22;;;13.77;82.63
48553;BME280;34335;51.566;6.994;2022-09-12T00:07:50;101227.38;;;13.77;83.37
48553;BME280;34335;51.566;6.994;2022-09-12T00:10:16;101223.84;;;13.87;90.21
48553;BME280;34335;51.566;6.994;2022-09-12T00:12:41;101221.31;;;13.70;86.11
48553;BME280;34335;51.566;6.994;2022-09-12T00:15:07;101220.47;;;13.66;83.69
48553;BME280;34335;51.566;6.994;2022-09-12T00:17:34;101228.31;;;13.63;82.94
48553;BME280;34335;51.566;6.994;2022-09-12T00:20:00;101215.28;;;13.60;83.93
48553;BME280;34335;51.566;6.994;2022-09-12T00:22:25;101217.88;;;13.59;87.55
48553;BME280;34335;51.566;6.994;2022-09-12T00:24:51;101217.03;;;13.58;86.86
48553;BME280;34335;51.566;6.994;2022-09-12T00:27:16;101210.94;;;13.53;84.74
48553;BME280;34335;51.566;6.994;2022-09-12T00:29:42;101209.22;;;13.49;83.79
48553;BME280;34335;51.566;6.994;2022-09-12T00:32:07;101204.88;;;13.45;84.06
48553;BME280;34335;51.566;6.994;2022-09-12T00:34:32;101208.38;;;13.44;84.18
48553;BME280;34335;51.566;6.994;2022-09-12T00:36:58;101204.88;;;13.51;85.71
48553;BME280;34335;51.566;6.994;2022-09-12T00:39:23;101208.41;;;13.40;85.89
48553;BME280;34335;51.566;6.994;2022-09-12T00:41:48;101201.44;;;13.35;85.18
48553;BME280;34335;51.566;6.994;2022-09-12T00:46:48;101202.34;;;13.24;83.86
48553;BME280;34335;51.566;6.994;2022-09-12T00:51:51;101198.00;;;13.20;84.87
48553;BME280;34335;51.566;6.994;2022-09-12T00:54:21;101205.88;;;13.17;84.59
48553;BME280;34335;51.566;6.994;2022-09-12T00:56:48;101189.31;;;13.15;84.92
48553;BME280;34335;51.566;6.994;2022-09-12T00:59:17;101191.09;;;13.12;84.24
48553;BME280;34335;51.566;6.994;2022-09-12T01:01:45;101191.09;;;13.08;84.28
48553;BME280;34335;51.566;6.994;2022-09-12T01:04:12;101183.22;;;13.16;85.58
48553;BME280;34335;51.566;6.994;2022-09-12T01:06:40;101187.59;;;13.06;85.24
48553;BME280;34335;51.566;6.994;2022-09-12T01:09:05;101192.84;;;13.00;84.35
48553;BME280;34335;51.566;6.994;2022-09-12T01:11:36;101188.53;;;12.94;84.33
48553;BME280;34335;51.566;6.994;2022-09-12T01:14:03;101189.41;;;12.92;84.84
48553;BME280;34335;51.566;6.994;2022-09-12T01:16:28;101179.84;;;12.88;84.49
48553;BME280;34335;51.566;6.994;2022-09-12T01:27:22;101190.25;;;12.89;86.31
48553;BME280;34335;51.566;6.994;2022-09-12T01:35:44;101170.31;;;12.71;85.65
48553;BME280;34335;51.566;6.994;2022-09-12T01:38:28;101170.31;;;12.68;86.97
48553;BME280;34335;51.566;6.994;2022-09-12T01:43:47;101170.34;;;12.62;85.93
48553;BME280;34335;51.566;6.994;2022-09-12T01:46:17;101167.72;;;12.59;85.56
48553;BME280;34335;51.566;6.994;2022-09-12T01:48:54;101162.53;;;12.53;85.69
48553;BME280;34335;51.566;6.994;2022-09-12T01:51:26;101165.13;;;12.50;85.70
48553;BME280;34335;51.566;6.994;2022-09-12T01:54:02;101159.03;;;12.51;85.94
48553;BME280;34335;51.566;6.994;2022-09-12T01:56:34;101156.44;;;12.47;86.04
48553;BME280;34335;51.566;6.994;2022-09-12T01:59:17;101146.03;;;12.44;85.81
48553;BME280;34335;51.566;6.994;2022-09-12T02:01:51;101149.47;;;12.57;88.85
48553;BME280;34335;51.566;6.994;2022-09-12T02:04:22;101147.75;;;12.47;88.35
48553;BME280;34335;51.566;6.994;2022-09-12T02:07:29;101141.66;;;12.42;86.93
48553;BME280;34335;51.566;6.994;2022-09-12T02:09:59;101133.84;;;12.43;86.91
48553;BME280;34335;51.566;6.994;2022-09-12T02:12:34;101134.69;;;12.58;89.33
48553;BME280;34335;51.566;6.994;2022-09-12T02:15:06;101135.56;;;12.43;87.14
48553;BME280;34335;51.566;6.994;2022-09-12T02:17:37;101130.38;;;12.38;87.33
48553;BME280;34335;51.566;6.994;2022-09-12T02:20:09;101132.09;;;12.36;86.81
48553;BME280;34335;51.566;6.994;2022-09-12T02:22:37;101132.09;;;12.42;89.21
48553;BME280;34335;51.566;6.994;2022-09-12T02:25:05;101132.03;;;12.70;92.63
48553;BME280;34335;51.566;6.994;2022-09-12T02:27:41;101133.84;;;12.43;89.52
48553;BME280;34335;51.566;6.994;2022-09-12T02:30:09;101121.66;;;12.36;87.64
48553;BME280;34335;51.566;6.994;2022-09-12T02:32:50;101130.38;;;12.35;87.76
48553;BME280;34335;51.566;6.994;2022-09-12T02:35:28;101124.28;;;12.30;86.71
48553;BME280;34335;51.566;6.994;2022-09-12T02:40:27;101123.41;;;12.28;86.79
48553;BME280;34335;51.566;6.994;2022-09-12T02:42:53;101119.09;;;12.22;86.63
48553;BME280;34335;51.566;6.994;2022-09-12T02:45:19;101118.22;;;12.25;87.58
48553;BME280;34335;51.566;6.994;2022-09-12T02:47:50;101117.34;;;12.15;86.90
48553;BME280;34335;51.566;6.994;2022-09-12T02:50:17;101121.69;;;12.27;90.92
48553;BME280;34335;51.566;6.994;2022-09-12T02:52:43;101113.03;;;12.15;88.06
48553;BME280;34335;51.566;6.994;2022-09-12T02:55:08;101108.66;;;12.16;88.59
48553;BME280;34335;51.566;6.994;2022-09-12T02:57:36;101111.28;;;12.28;92.10
48553;BME280;34335;51.566;6.994;2022-09-12T03:00:02;101105.19;;;12.09;88.44
48553;BME280;34335;51.566;6.994;2022-09-12T03:02:38;101103.47;;;12.05;88.33
48553;BME280;34335;51.566;6.994;2022-09-12T03:05:53;101108.66;;;12.33;93.24
48553;BME280;34335;51.566;6.994;2022-09-12T03:11:13;101105.22;;;12.02;88.38
48553;BME280;34335;51.566;6.994;2022-09-12T03:14:12;101101.72;;;12.10;90.18
48553;BME280;34335;51.566;6.994;2022-09-12T03:16:52;101109.53;;;12.03;89.38
48553;BME280;34335;51.566;6.994;2022-09-12T03:22:12;101099.97;;;11.88;88.12
48553;BME280;34335;51.566;6.994;2022-09-12T03:24:50;101102.59;;;11.92;88.71
48553;BME280;34335;51.566;6.994;2022-09-12T03:27:34;101106.94;;;12.04;90.16
48553;BME280;34335;51.566;6.994;2022-09-12T03:30:00;101093.03;;;11.99;88.78
48553;BME280;34335;51.566;6.994;2022-09-12T03:32:59;101101.69;;;11.82;87.79
48553;BME280;34335;51.566;6.994;2022-09-12T03:35:24;101102.59;;;11.88;89.61
48553;BME280;34335;51.566;6.994;2022-09-12T03:37:51;101103.44;;;11.79;88.01
48553;BME280;34335;51.566;6.994;2022-09-12T03:40:17;101101.69;;;11.68;87.84
48553;BME280;34335;51.566;6.994;2022-09-12T03:42:42;101102.56;;;11.75;90.64
48553;BME280;34335;51.566;6.994;2022-09-12T03:45:08;101113.00;;;11.91;94.65
48553;BME280;34335;51.566;6.994;2022-09-12T03:47:34;101106.03;;;11.66;92.17
48553;BME280;34335;51.566;6.994;2022-09-12T03:49:59;101106.91;;;11.48;89.63
48553;BME280;34335;51.566;6.994;2022-09-12T03:52:25;101110.34;;;11.46;88.73
48553;BME280;34335;51.566;6.994;2022-09-12T03:54:50;101101.66;;;11.42;88.57
48553;BME280;34335;51.566;6.994;2022-09-12T03:57:16;101106.03;;;11.56;89.69
48553;BME280;34335;51.566;6.994;2022-09-12T03:59:41;101100.78;;;11.49;88.73
48553;BME280;34335;51.566;6.994;2022-09-12T04:02:06;101096.47;;;11.44;88.69
48553;BME280;34335;51.566;6.994;2022-09-12T04:04:33;101099.06;;;11.51;90.17
48553;BME280;34335;51.566;6.994;2022-09-12T04:06:59;101099.94;;;11.67;94.83
48553;BME280;34335;51.566;6.994;2022-09-12T04:09:24;101100.78;;;11.40;89.27
48553;BME280;34335;51.566;6.994;2022-09-12T04:11:49;101091.25;;;11.44;89.86
48553;BME280;34335;51.566;6.994;2022-09-12T04:14:15;101096.44;;;11.41;89.76
48553;BME280;34335;51.566;6.994;2022-09-12T04:16:40;101092.13;;;11.47;90.46
48553;BME280;34335;51.566;6.994;2022-09-12T04:19:05;101092.09;;;11.50;90.33
48553;BME280;34335;51.566;6.994;2022-09-12T04:21:30;101089.53;;;11.43;89.96
48553;BME280;34335;51.566;6.994;2022-09-12T04:23:56;101089.50;;;11.41;89.97
48553;BME280;34335;51.566;6.994;2022-09-12T04:26:21;101092.13;;;11.38;90.43
48553;BME280;34335;51.566;6.994;2022-09-12T04:28:47;101091.22;;;11.42;90.34
48553;BME280;34335;51.566;6.994;2022-09-12T04:31:17;101086.06;;;11.44;90.79
48553;BME280;34335;51.566;6.994;2022-09-12T04:33:44;101082.56;;;11.38;90.46
48553;BME280;34335;51.566;6.994;2022-09-12T04:36:13;101090.34;;;11.35;90.46
48553;BME280;34335;51.566;6.994;2022-09-12T04:38:41;101077.34;;;11.32;90.23
48553;BME280;34335;51.566;6.994;2022-09-12T04:41:15;101084.28;;;11.35;90.35
48553;BME280;34335;51.566;6.994;2022-09-12T04:43:41;101078.19;;;11.33;91.02
48553;BME280;34335;51.566;6.994;2022-09-12T04:46:09;101081.66;;;11.32;90.36
48553;BME280;34335;51.566;6.994;2022-09-12T04:48:34;101074.75;;;11.51;92.98
48553;BME280;34335;51.566;6.994;2022-09-12T04:51:11;101076.47;;;11.41;93.26
48553;BME280;34335;51.566;6.994;2022-09-12T04:53:37;101073.00;;;11.36;94.57
48553;BME280;34335;51.566;6.994;2022-09-12T04:56:04;101068.69;;;11.43;95.78
48553;BME280;34335;51.566;6.994;2022-09-12T04:58:31;101071.25;;;11.30;92.56
48553;BME280;34335;51.566;6.994;2022-09-12T05:01:08;101059.97;;;11.33;93.53
48553;BME280;34335;51.566;6.994;2022-09-12T05:03:34;101068.66;;;11.35;92.61
48553;BME280;34335;51.566;6.994;2022-09-12T05:06:03;101066.94;;;11.42;94.81
48553;BME280;34335;51.566;6.994;2022-09-12T05:08:29;101060.88;;;11.47;95.21
48553;BME280;34335;51.566;6.994;2022-09-12T05:10:54;101057.38;;;11.42;94.61
48553;BME280;34335;51.566;6.994;2022-09-12T05:13:19;101057.38;;;11.51;95.79
48553;BME280;34335;51.566;6.994;2022-09-12T05:15:56;101063.44;;;11.41;98.20
48553;BME280;34335;51.566;6.994;2022-09-12T05:18:22;101065.19;;;11.31;94.29
48553;BME280;34335;51.566;6.994;2022-09-12T05:20:47;101063.47;;;11.47;95.50
48553;BME280;34335;51.566;6.994;2022-09-12T05:23:13;101060.88;;;11.57;97.93
48553;BME280;34335;51.566;6.994;2022-09-12T05:25:38;101055.66;;;11.38;95.65
48553;BME280;34335;51.566;6.994;2022-09-12T05:28:03;101050.41;;;11.26;92.45
48553;BME280;34335;51.566;6.994;2022-09-12T05:30:29;101048.72;;;11.56;100.00
48553;BME280;34335;51.566;6.994;2022-09-12T05:32:54;101057.38;;;11.51;100.00
48553;BME280;34335;51.566;6.994;2022-09-12T05:35:20;101052.19;;;11.70;100.00
48553;BME280;34335;51.566;6.994;2022-09-12T05:37:45;101053.06;;;11.67;100.00
48553;BME280;34335;51.566;6.994;2022-09-12T05:40:10;101059.16;;;11.59;99.67
48553;BME280;34335;51.566;6.994;2022-09-12T05:42:37;101052.19;;;11.92;100.00
48553;BME280;34335;51.566;6.994;2022-09-12T05:45:03;101058.28;;;11.57;100.00
48553;BME280;34335;51.566;6.994;2022-09-12T05:47:28;101046.97;;;11.73;100.00
48553;BME280;34335;51.566;6.994;2022-09-12T05:49:53;101050.44;;;11.64;100.00
48553;BME280;34335;51.566;6.994;2022-09-12T05:52:19;101053.94;;;12.07;100.00
48553;BME280;34335;51.566;6.994;2022-09-12T05:54:44;101058.28;;;12.00;100.00
48553;BME280;34335;51.566;6.994;2022-09-12T05:57:10;101061.72;;;12.33;100.00
48553;BME280;34335;51.566;6.994;2022-09-12T05:59:36;101059.09;;;12.27;100.00
48553;BME280;34335;51.566;6.994;2022-09-12T06:02:02;101066.06;;;12.26;100.00
48553;BME280;34335;51.566;6.994;2022-09-12T06:04:28;101066.91;;;12.31;100.00
48553;BME280;34335;51.566;6.994;2022-09-12T06:06:53;101072.84;;;12.78;100.00
48553;BME280;34335;51.566;6.994;2022-09-12T06:09:19;101071.13;;;12.79;100.00
48553;BME280;34335;51.566;6.994;2022-09-12T06:11:45;101078.03;;;12.85;100.00
48553;BME280;34335;51.566;6.994;2022-09-12T06:14:12;101072.81;;;12.85;100.00
48553;BME280;34335;51.566;6.994;2022-09-12T06:16:38;101080.59;;;12.97;100.00
48553;BME280;34335;51.566;6.994;2022-09-12T06:19:26;101074.44;;;13.15;100.00
48553;BME280;34335;51.566;6.994;2022-09-12T06:21:52;101079.63;;;13.14;100.00
48553;BME280;34335;51.566;6.994;2022-09-12T06:24:19;101074.44;;;13.15;100.00
48553;BME280;34335;51.566;6.994;2022-09-12T06:26:45;101066.44;;;13.43;100.00
48553;BME280;34335;51.566;6.994;2022-09-12T06:29:11;101073.47;;;13.27;100.00
48553;BME280;34335;51.566;6.994;2022-09-12T06:31:39;101073.41;;;13.44;100.00
48553;BME280;34335;51.566;6.994;2022-09-12T06:34:07;101063.75;;;13.55;100.00
48553;BME280;34335;51.566;6.994;2022-09-12T06:36:45;101065.41;;;13.64;100.00
48553;BME280;34335;51.566;6.994;2022-09-12T06:39:13;101062.94;;;13.43;100.00
48553;BME280;34335;51.566;6.994;2022-09-12T06:41:39;101063.72;;;13.60;100.00
48553;BME280;34335;51.566;6.994;2022-09-12T06:44:04;101065.06;;;14.05;100.00
48553;BME280;34335;51.566;6.994;2022-09-12T06:46:31;101068.19;;;13.36;100.00
48553;BME280;34335;51.566;6.994;2022-09-12T06:48:57;101060.31;;;13.49;100.00
48553;BME280;34335;51.566;6.994;2022-09-12T06:51:24;101066.47;;;13.31;98.56
48553;BME280;34335;51.566;6.994;2022-09-12T06:53:52;101069.09;;;13.28;99.72
48553;BME280;34335;51.566;6.994;2022-09-12T06:56:20;101065.56;;;13.43;100.00
48553;BME280;34335;51.566;6.994;2022-09-12T06:58:46;101061.66;;;13.96;100.00
48553;BME280;34335;51.566;6.994;2022-09-12T07:01:18;101062.50;;;13.98;100.00
48553;BME280;34335;51.566;6.994;2022-09-12T07:03:51;101057.22;;;14.01;100.00
48553;BME280;34335;51.566;6.994;2022-09-12T07:06:19;101064.50;;;13.70;99.62
48553;BME280;34335;51.566;6.994;2022-09-12T07:08:45;101063.13;;;14.22;100.00
48553;BME280;34335;51.566;6.994;2022-09-12T07:11:17;101071.22;;;13.99;100.00
48553;BME280;34335;51.566;6.994;2022-09-12T07:13:44;101067.03;;;14.63;100.00
48553;BME280;34335;51.566;6.994;2022-09-12T07:16:11;101070.53;;;14.62;100.00
48553;BME280;34335;51.566;6.994;2022-09-12T07:18:37;101078.31;;;14.72;100.00
48553;BME280;34335;51.566;6.994;2022-09-12T07:21:06;101073.91;;;14.75;100.00
48553;BME280;34335;51.566;6.994;2022-09-12T07:23:31;101072.06;;;14.85;100.00
48553;BME280;34335;51.566;6.994;2022-09-12T07:25:58;101064.22;;;14.82;100.00
48553;BME280;34335;51.566;6.994;2022-09-12T07:28:25;101058.91;;;14.88;100.00
48553;BME280;34335;51.566;6.994;2022-09-12T07:30:51;101058.63;;;15.10;100.00
48553;BME280;34335;51.566;6.994;2022-09-12T07:33:19;101060.41;;;15.06;100.00
48553;BME280;34335;51.566;6.994;2022-09-12T07:35:45;101060.47;;;15.02;100.00
48553;BME280;34335;51.566;6.994;2022-09-12T07:38:10;101058.56;;;15.15;100.00
48553;BME280;34335;51.566;6.994;2022-09-12T07:40:35;101060.19;;;15.23;100.00
48553;BME280;34335;51.566;6.994;2022-09-12T07:43:00;101064.66;;;15.15;99.86
48553;BME280;34335;51.566;6.994;2022-09-12T07:45:26;101058.16;;;15.39;100.00
48553;BME280;34335;51.566;6.994;2022-09-12T07:47:55;101061.78;;;15.32;100.00
48553;BME280;34335;51.566;6.994;2022-09-12T07:50:20;101058.31;;;15.32;99.12
48553;BME280;34335;51.566;6.994;2022-09-12T07:52:45;101063.28;;;15.50;99.72
48553;BME280;34335;51.566;6.994;2022-09-12T07:55:11;101060.38;;;15.67;99.51
48553;BME280;34335;51.566;6.994;2022-09-12T07:57:36;101054.09;;;15.76;100.00
48553;BME280;34335;51.566;6.994;2022-09-12T08:00:03;101056.50;;;15.90;100.00
48553;BME280;34335;51.566;6.994;2022-09-12T08:02:29;101060.09;;;15.84;100.00
48553;BME280;34335;51.566;6.994;2022-09-12T08:04:55;101060.88;;;15.91;100.00
48553;BME280;34335;51.566;6.994;2022-09-12T08:07:20;101071.16;;;16.02;98.61
48553;BME280;34335;51.566;6.994;2022-09-12T08:09:45;101075.31;;;16.15;98.74
48553;BME280;34335;51.566;6.994;2022-09-12T08:12:11;101075.44;;;16.09;98.20
48553;BME280;34335;51.566;6.994;2022-09-12T08:14:36;101077.09;;;16.15;97.90
48553;BME280;34335;51.566;6.994;2022-09-12T08:17:02;101079.41;;;16.30;97.48
48553;BME280;34335;51.566;6.994;2022-09-12T08:19:27;101077.75;;;16.25;96.43
48553;BME280;34335;51.566;6.994;2022-09-12T08:21:52;101072.25;;;16.39;97.95
48553;BME280;34335;51.566;6.994;2022-09-12T08:24:17;101071.44;;;16.35;96.15
48553;BME280;34335;51.566;6.994;2022-09-12T08:26:43;101077.63;;;16.31;95.75
48553;BME280;34335;51.566;6.994;2022-09-12T08:29:08;101078.81;;;16.60;96.87
48553;BME280;34335;51.566;6.994;2022-09-12T08:31:33;101073.13;;;16.81;96.62
48553;BME280;34335;51.566;6.994;2022-09-12T08:34:02;101074.50;;;17.01;96.70
48553;BME280;34335;51.566;6.994;2022-09-12T08:36:28;101068.00;;;17.18;95.03
48553;BME280;34335;51.566;6.994;2022-09-12T08:39:03;101075.13;;;17.12;92.94
48553;BME280;34335;51.566;6.994;2022-09-12T08:41:46;101066.72;;;17.36;92.53
48553;BME280;34335;51.566;6.994;2022-09-12T08:52:03;101054.81;;;17.93;91.26
48553;BME280;34335;51.566;6.994;2022-09-12T08:54:30;101058.00;;;18.06;90.09
48553;BME280;34335;51.566;6.994;2022-09-12T08:57:00;101059.50;;;18.15;89.83
48553;BME280;34335;51.566;6.994;2022-09-12T08:59:37;101062.19;;;18.46;90.31
48553;BME280;34335;51.566;6.994;2022-09-12T09:02:23;101056.88;;;18.48;88.84
48553;BME280;34335;51.566;6.994;2022-09-12T09:10:46;101070.22;;;18.72;87.67
48553;BME280;34335;51.566;6.994;2022-09-12T09:16:14;101061.28;;;19.07;88.61
48553;BME280;34335;51.566;6.994;2022-09-12T09:18:42;101058.13;;;19.24;85.92
48553;BME280;34335;51.566;6.994;2022-09-12T09:21:19;101056.41;;;19.23;87.73
48553;BME280;34335;51.566;6.994;2022-09-12T09:23:49;101056.84;;;19.38;87.16
48553;BME280;34335;51.566;6.994;2022-09-12T09:26:20;101048.81;;;19.68;83.39
48553;BME280;34335;51.566;6.994;2022-09-12T09:29:01;101050.56;;;19.96;87.25
48553;BME280;34335;51.566;6.994;2022-09-12T09:31:36;101052.81;;;20.06;82.95
48553;BME280;34335;51.566;6.994;2022-09-12T09:34:09;101054.72;;;20.03;81.54
48553;BME280;34335;51.566;6.994;2022-09-12T09:36:48;101051.03;;;20.07;80.90
48553;BME280;34335;51.566;6.994;2022-09-12T09:42:24;101050.66;;;20.18;80.58
48553;BME280;34335;51.566;6.994;2022-09-12T09:44:53;101045.28;;;20.68;81.16
48553;BME280;34335;51.566;6.994;2022-09-12T09:47:20;101034.44;;;20.76;81.89
48553;BME280;34335;51.566;6.994;2022-09-12T09:49:45;101039.19;;;20.90;80.06
48553;BME280;34335;51.566;6.994;2022-09-12T09:52:14;101031.81;;;20.98;82.81
48553;BME280;34335;51.566;6.994;2022-09-12T09:54:45;101025.31;;;21.07;76.33
48553;BME280;34335;51.566;6.994;2022-09-12T10:05:36;101019.97;;;21.74;76.83
48553;BME280;34335;51.566;6.994;2022-09-12T10:08:09;101019.44;;;21.66;72.68
48553;BME280;34335;51.566;6.994;2022-09-12T10:10:35;101023.75;;;21.89;76.08
48553;BME280;34335;51.566;6.994;2022-09-12T10:13:24;101016.34;;;21.97;74.39
48553;BME280;34335;51.566;6.994;2022-09-12T10:15:56;101007.50;;;22.36;74.54
48553;BME280;34335;51.566;6.994;2022-09-12T10:18:40;101003.91;;;22.58;77.68
48553;BME280;34335;51.566;6.994;2022-09-12T10:21:15;100995.25;;;22.54;73.60
48553;BME280;34335;51.566;6.994;2022-09-12T10:23:42;100986.22;;;22.78;68.73
48553;BME280;34335;51.566;6.994;2022-09-12T10:26:13;100985.66;;;23.08;78.04
48553;BME280;34335;51.566;6.994;2022-09-12T10:31:09;100992.81;;;23.25;67.92
48553;BME280;34335;51.566;6.994;2022-09-12T10:33:43;100983.78;;;23.46;70.24
48553;BME280;34335;51.566;6.994;2022-09-12T10:36:09;100975.88;;;23.45;72.97
48553;BME280;34335;51.566;6.994;2022-09-12T10:38:35;100983.00;;;23.27;65.26
48553;BME280;34335;51.566;6.994;2022-09-12T10:41:08;100972.47;;;23.60;69.91
48553;BME280;34335;51.566;6.994;2022-09-12T10:43:38;100977.75;;;23.78;66.30
48553;BME280;34335;51.566;6.994;2022-09-12T10:48:45;100977.75;;;23.78;66.79
48553;BME280;34335;51.566;6.994;2022-09-12T10:51:26;100976.75;;;24.14;69.82
48553;BME280;34335;51.566;6.994;2022-09-12T10:53:57;100971.84;;;24.06;64.64
48553;BME280;34335;51.566;6.994;2022-09-12T10:56:32;100970.38;;;24.50;71.16
48553;BME280;34335;51.566;6.994;2022-09-12T10:59:41;100968.47;;;24.36;65.21
48553;BME280;34335;51.566;6.994;2022-09-12T11:04:56;100962.22;;;24.53;59.23
48553;BME280;34335;51.566;6.994;2022-09-12T11:07:41;100945.22;;;25.04;63.64
48553;BME280;34335;51.566;6.994;2022-09-12T11:10:29;100949.44;;;24.92;62.81
48553;BME280;34335;51.566;6.994;2022-09-12T11:13:16;100946.59;;;24.95;59.39
48553;BME280;34335;51.566;6.994;2022-09-12T11:21:44;100937.03;;;25.54;61.39
48553;BME280;34335;51.566;6.994;2022-09-12T11:27:10;100932.50;;;25.40;53.24
48553;BME280;34335;51.566;6.994;2022-09-12T11:29:48;100937.78;;;25.85;60.14
48553;BME280;34335;51.566;6.994;2022-09-12T11:35:27;100924.09;;;25.76;52.36
48553;BME280;34335;51.566;6.994;2022-09-12T11:40:44;100921.16;;;25.81;52.88
48553;BME280;34335;51.566;6.994;2022-09-12T11:43:23;100920.47;;;26.06;56.24
48553;BME280;34335;51.566;6.994;2022-09-12T11:45:50;100913.63;;;25.88;52.35
48553;BME280;34335;51.566;6.994;2022-09-12T11:48:34;100914.47;;;25.88;53.42
48553;BME280;34335;51.566;6.994;2022-09-12T11:51:04;100911.06;;;25.27;55.01
48553;BME280;34335;51.566;6.994;2022-09-12T11:53:35;100910.88;;;25.46;51.74
48553;BME280;34335;51.566;6.994;2022-09-12T11:56:18;100912.53;;;25.02;50.51
48553;BME280;34335;51.566;6.994;2022-09-12T11:58:49;100906.97;;;25.66;54.65
48553;BME280;34335;51.566;6.994;2022-09-12T12:01:19;100914.41;;;25.75;57.02
48553;BME280;34335;51.566;6.994;2022-09-12T12:03:46;100911.75;;;26.19;50.56
48553;BME280;34335;51.566;6.994;2022-09-12T12:06:21;100903.03;;;26.44;52.93
48553;BME280;34335;51.566;6.994;2022-09-12T12:08:48;100901.38;;;26.56;52.71
48553;BME280;34335;51.566;6.994;2022-09-12T12:11:33;100903.84;;;26.03;48.77
48553;BME280;34335;51.566;6.994;2022-09-12T12:14:45;100904.63;;;26.47;49.79
48553;BME280;34335;51.566;6.994;2022-09-12T12:16:50;100904.50;;;26.06;57.30
48553;BME280;34335;51.566;6.994;2022-09-12T12:21:48;100899.13;;;27.56;55.42
48553;BME280;34335;51.566;6.994;2022-09-12T12:24:22;100893.72;;;27.45;52.95
48553;BME280;34335;51.566;6.994;2022-09-12T12:50:07;100864.91;;;28.13;43.84
48553;BME280;34335;51.566;6.994;2022-09-12T12:52:48;100846.81;;;28.41;50.09
48553;BME280;34335;51.566;6.994;2022-09-12T12:58:30;100850.69;;;27.99;46.59
48553;BME280;34335;51.566;6.994;2022-09-12T13:03:34;100848.84;;;27.50;45.00
48553;BME280;34335;51.566;6.994;2022-09-12T13:06:05;100832.69;;;28.63;46.89
48553;BME280;34335;51.566;6.994;2022-09-12T13:08:35;100825.56;;;28.75;46.22
48553;BME280;34335;51.566;6.994;2022-09-12T13:11:07;100829.66;;;29.15;41.59
48553;BME280;34335;51.566;6.994;2022-09-12T13:14:02;100835.13;;;29.02;48.45
48553;BME280;34335;51.566;6.994;2022-09-12T13:16:34;100834.63;;;29.32;49.59
48553;BME280;34335;51.566;6.994;2022-09-12T13:19:13;100827.28;;;29.46;48.31
48553;BME280;34335;51.566;6.994;2022-09-12T13:21:59;100817.91;;;29.40;45.83
48553;BME280;34335;51.566;6.994;2022-09-12T13:24:24;100818.28;;;29.47;44.58
48553;BME280;34335;51.566;6.994;2022-09-12T13:26:50;100824.81;;;29.08;45.75
48553;BME280;34335;51.566;6.994;2022-09-12T13:29:17;100808.94;;;28.83;43.44
48553;BME280;34335;51.566;6.994;2022-09-12T13:31:46;100801.34;;;29.69;42.52
48553;BME280;34335;51.566;6.994;2022-09-12T13:34:18;100807.50;;;28.90;43.32
48553;BME280;34335;51.566;6.994;2022-09-12T13:39:45;100820.00;;;27.55;46.85
48553;BME280;34335;51.566;6.994;2022-09-12T13:45:20;100792.09;;;29.39;41.12
48553;BME280;34335;51.566;6.994;2022-09-12T13:47:59;100796.63;;;29.38;44.61
48553;BME280;34335;51.566;6.994;2022-09-12T13:50:29;100795.03;;;28.77;44.55
48553;BME280;34335;51.566;6.994;2022-09-12T13:53:00;100798.47;;;28.55;38.46
48553;BME280;34335;51.566;6.994;2022-09-12T13:55:32;100795.84;;;28.67;46.55
48553;BME280;34335;51.566;6.994;2022-09-12T14:00:38;100790.09;;;30.09;44.64
48553;BME280;34335;51.566;6.994;2022-09-12T14:03:33;100796.91;;;30.13;38.11
48553;BME280;34335;51.566;6.994;2022-09-12T14:06:16;100789.50;;;29.94;39.69
48553;BME280;34335;51.566;6.994;2022-09-12T14:08:44;100790.31;;;30.06;44.23
48553;BME280;34335;51.566;6.994;2022-09-12T14:11:17;100790.00;;;29.20;39.70
48553;BME280;34335;51.566;6.994;2022-09-12T14:13:45;100777.69;;;29.97;44.04
48553;BME280;34335;51.566;6.994;2022-09-12T14:16:10;100778.47;;;29.42;38.42
48553;BME280;34335;51.566;6.994;2022-09-12T14:18:37;100774.56;;;29.23;39.95
48553;BME280;34335;51.566;6.994;2022-09-12T14:21:11;100774.91;;;29.64;39.41
48553;BME280;34335;51.566;6.994;2022-09-12T14:23:45;100777.38;;;29.56;42.37
48553;BME280;34335;51.566;6.994;2022-09-12T14:26:13;100775.66;;;29.21;38.64
48553;BME280;34335;51.566;6.994;2022-09-12T14:28:41;100773.72;;;29.46;43.97
48553;BME280;34335;51.566;6.994;2022-09-12T14:34:06;100765.69;;;29.46;43.55
48553;BME280;34335;51.566;6.994;2022-09-12T14:36:34;100756.31;;;29.51;44.00
48553;BME280;34335;51.566;6.994;2022-09-12T14:39:03;100747.34;;;30.29;44.04
48553;BME280;34335;51.566;6.994;2022-09-12T14:41:40;100754.41;;;30.30;42.00
48553;BME280;34335;51.566;6.994;2022-09-12T14:44:23;100751.19;;;29.48;43.72
48553;BME280;34335;51.566;6.994;2022-09-12T14:46:49;100753.16;;;29.58;40.36
48553;BME280;34335;51.566;6.994;2022-09-12T14:51:54;100743.16;;;29.26;42.62
48553;BME280;34335;51.566;6.994;2022-09-12T14:57:00;100737.41;;;29.64;38.39
48553;BME280;34335;51.566;6.994;2022-09-12T14:59:36;100726.84;;;30.07;42.26
48553;BME280;34335;51.566;6.994;2022-09-12T15:02:23;100726.91;;;29.73;37.08
48553;BME280;34335;51.566;6.994;2022-09-12T15:04:52;100724.03;;;30.08;38.95
48553;BME280;34335;51.566;6.994;2022-09-12T15:07:37;100739.47;;;28.92;42.52
48553;BME280;34335;51.566;6.994;2022-09-12T15:10:05;100732.81;;;29.44;36.66
48553;BME280;34335;51.566;6.994;2022-09-12T15:12:31;100724.16;;;29.51;40.55